sensor_id;sensor_type;location;lat;lon;timestamp;pressure;altitude;pressure_sealevel;temperature;humidity
78625;BME280;67944;0.000;0.000;2023-05-23T00:00:58;100509.59;;;25.47;41.46
78625;BME280;67944;0.000;0.000;2023-05-23T00:03:24;100499.13;;;25.45;41.46
78625;BME280;67944;0.000;0.000;2023-05-23T00:05:49;100506.13;;;25.46;41.38
78625;BME280;67944;0.000;0.000;2023-05-23T00:08:16;100508.16;;;25.44;41.48
78625;BME280;67944;0.000;0.000;2023-05-23T00:10:42;100510.00;;;25.44;41.19
78625;BME280;67944;0.000;0.000;2023-05-23T00:13:07;100505.72;;;25.43;42.13
78625;BME280;67944;0.000;0.000;2023-05-23T00:15:34;100509.41;;;25.42;41.16
78625;BME280;67944;0.000;0.000;2023-05-23T00:18:01;100502.44;;;25.41;41.31
78625;BME280;67944;0.000;0.000;2023-05-23T00:20:27;100506.94;;;25.40;41.82
78625;BME280;67944;0.000;0.000;2023-05-23T00:22:53;100506.13;;;25.40;41.87
78625;BME280;67944;0.000;0.000;2023-05-23T00:25:25;100503.88;;;25.37;41.77
78625;BME280;67944;0.000;0.000;2023-05-23T00:28:02;100505.50;;;25.38;41.64
78625;BME280;67944;0.000;0.000;2023-05-23T00:30:32;100508.38;;;25.36;41.61
78625;BME280;67944;0.000;0.000;2023-05-23T00:32:58;100501.22;;;25.37;42.04
78625;BME280;67944;0.000;0.000;2023-05-23T00:35:25;100512.09;;;25.35;41.82
78625;BME280;67944;0.000;0.000;2023-05-23T00:37:51;100513.09;;;25.34;41.28
78625;BME280;67944;0.000;0.000;2023-05-23T00:40:21;100508.03;;;25.33;41.96
78625;BME280;67944;0.000;0.000;2023-05-23T00:42:47;100508.44;;;25.30;41.74
78625;BME280;67944;0.000;0.000;2023-05-23T00:45:13;100506.78;;;25.28;41.71
78625;BME280;67944;0.000;0.000;2023-05-23T00:47:39;100504.34;;;25.27;41.72
78625;BME280;67944;0.000;0.000;2023-05-23T00:50:11;100503.53;;;25.26;41.48
78625;BME280;67944;0.000;0.000;2023-05-23T00:52:39;100507.22;;;25.25;41.38
78625;BME280;67944;0.000;0.000;2023-05-23T00:55:05;100502.09;;;25.24;41.80
78625;BME280;67944;0.000;0.000;2023-05-23T00:57:33;100514.59;;;25.23;41.59
78625;BME280;67944;0.000;0.000;2023-05-23T01:00:00;100515.63;;;25.22;41.66
78625;BME280;67944;0.000;0.000;2023-05-23T01:02:26;100518.50;;;25.21;42.36
78625;BME280;67944;0.000;0.000;2023-05-23T01:04:54;100527.53;;;25.20;41.59
78625;BME280;67944;0.000;0.000;2023-05-23T01:07:20;100520.53;;;25.19;41.42
78625;BME280;67944;0.000;0.000;2023-05-23T01:09:47;100513.56;;;25.18;41.74
78625;BME280;67944;0.000;0.000;2023-05-23T01:15:06;100521.78;;;25.16;41.58
78625;BME280;67944;0.000;0.000;2023-05-23T01:18:09;100527.31;;;25.15;41.65
78625;BME280;67944;0.000;0.000;2023-05-23T01:20:59;100526.69;;;25.13;42.43
78625;BME280;67944;0.000;0.000;2023-05-23T01:24:09;100528.78;;;25.11;41.61
78625;BME280;67944;0.000;0.000;2023-05-23T01:27:00;100522.63;;;25.10;42.26
78625;BME280;67944;0.000;0.000;2023-05-23T01:29:44;100524.69;;;25.08;42.47
78625;BME280;67944;0.000;0.000;2023-05-23T01:32:11;100527.56;;;25.07;41.98
78625;BME280;67944;0.000;0.000;2023-05-23T01:34:40;100527.75;;;25.05;42.60
78625;BME280;67944;0.000;0.000;2023-05-23T01:37:08;100543.75;;;25.05;42.15
78625;BME280;67944;0.000;0.000;2023-05-23T01:39:42;100535.75;;;25.05;42.39
78625;BME280;67944;0.000;0.000;2023-05-23T01:42:08;100540.47;;;25.03;42.05
78625;BME280;67944;0.000;0.000;2023-05-23T01:44:35;100536.78;;;25.04;42.66
78625;BME280;67944;0.000;0.000;2023-05-23T01:47:03;100538.63;;;25.04;42.71
78625;BME280;67944;0.000;0.000;2023-05-23T01:49:30;100541.28;;;25.04;42.04
78625;BME280;67944;0.000;0.000;2023-05-23T01:51:59;100549.50;;;25.02;42.10
78625;BME280;67944;0.000;0.000;2023-05-23T01:54:27;100540.69;;;25.02;42.16
78625;BME280;67944;0.000;0.000;2023-05-23T01:56:56;100547.66;;;25.03;42.05
78625;BME280;67944;0.000;0.000;2023-05-23T01:59:21;100544.38;;;25.01;41.91
78625;BME280;67944;0.000;0.000;2023-05-23T02:01:47;100549.69;;;25.01;41.78
78625;BME280;67944;0.000;0.000;2023-05-23T02:04:13;100541.91;;;24.99;42.23
78625;BME280;67944;0.000;0.000;2023-05-23T02:06:38;100542.13;;;24.98;42.39
78625;BME280;67944;0.000;0.000;2023-05-23T02:09:04;100552.78;;;24.98;41.80
78625;BME280;67944;0.000;0.000;2023-05-23T02:11:29;100539.66;;;24.96;42.58
78625;BME280;67944;0.000;0.000;2023-05-23T02:13:55;100544.16;;;24.96;42.42
78625;BME280;67944;0.000;0.000;2023-05-23T02:16:20;100539.00;;;24.94;42.00
78625;BME280;67944;0.000;0.000;2023-05-23T02:18:47;100548.03;;;24.93;42.10
78625;BME280;67944;0.000;0.000;2023-05-23T02:21:13;100543.53;;;24.93;42.26
78625;BME280;67944;0.000;0.000;2023-05-23T02:23:38;100549.88;;;24.92;42.81
78625;BME280;67944;0.000;0.000;2023-05-23T02:26:04;100559.91;;;24.90;42.50
78625;BME280;67944;0.000;0.000;2023-05-23T02:28:29;100565.25;;;24.90;41.94
78625;BME280;67944;0.000;0.000;2023-05-23T02:30:55;100558.31;;;24.89;42.59
78625;BME280;67944;0.000;0.000;2023-05-23T02:33:20;100564.41;;;24.90;41.97
78625;BME280;67944;0.000;0.000;2023-05-23T02:35:46;100571.81;;;24.88;42.75
78625;BME280;67944;0.000;0.000;2023-05-23T02:38:11;100564.03;;;24.86;42.89
78625;BME280;67944;0.000;0.000;2023-05-23T02:40:37;100580.03;;;24.86;42.40
78625;BME280;67944;0.000;0.000;2023-05-23T02:43:02;100585.34;;;24.86;42.82
78625;BME280;67944;0.000;0.000;2023-05-23T02:45:28;100582.88;;;24.85;42.95
78625;BME280;67944;0.000;0.000;2023-05-23T02:47:53;100580.44;;;24.83;42.61
78625;BME280;67944;0.000;0.000;2023-05-23T02:50:19;100588.41;;;24.83;42.94
78625;BME280;67944;0.000;0.000;2023-05-23T02:52:44;100588.63;;;24.82;42.81
78625;BME280;67944;0.000;0.000;2023-05-23T02:55:10;100603.78;;;24.81;42.47
78625;BME280;67944;0.000;0.000;2023-05-23T02:57:35;100608.28;;;24.81;42.47
78625;BME280;67944;0.000;0.000;2023-05-23T03:00:01;100607.47;;;24.80;42.79
78625;BME280;67944;0.000;0.000;2023-05-23T03:02:27;100602.34;;;24.79;42.94
78625;BME280;67944;0.000;0.000;2023-05-23T03:04:52;100599.88;;;24.77;42.53
78625;BME280;67944;0.000;0.000;2023-05-23T03:07:17;100599.06;;;24.77;42.39
78625;BME280;67944;0.000;0.000;2023-05-23T03:09:43;100600.91;;;24.76;42.09
78625;BME280;67944;0.000;0.000;2023-05-23T03:12:08;100596.59;;;24.75;42.37
78625;BME280;67944;0.000;0.000;2023-05-23T03:14:34;100597.63;;;24.74;42.69
78625;BME280;67944;0.000;0.000;2023-05-23T03:16:59;100610.13;;;24.74;42.36
78625;BME280;67944;0.000;0.000;2023-05-23T03:19:25;100609.50;;;24.72;42.94
78625;BME280;67944;0.000;0.000;2023-05-23T03:21:50;100608.50;;;24.66;42.64
78625;BME280;67944;0.000;0.000;2023-05-23T03:24:16;100621.81;;;24.59;43.43
78625;BME280;67944;0.000;0.000;2023-05-23T03:26:42;100613.16;;;24.51;43.62
78625;BME280;67944;0.000;0.000;2023-05-23T03:29:07;100609.06;;;24.42;43.70
78625;BME280;67944;0.000;0.000;2023-05-23T03:31:35;100608.22;;;24.35;43.55
78625;BME280;67944;0.000;0.000;2023-05-23T03:34:02;100607.38;;;24.27;44.00
78625;BME280;67944;0.000;0.000;2023-05-23T03:36:30;100611.84;;;24.20;43.59
78625;BME280;67944;0.000;0.000;2023-05-23T03:38:57;100617.16;;;24.14;44.48
78625;BME280;67944;0.000;0.000;2023-05-23T03:41:23;100616.50;;;24.05;44.32
78625;BME280;67944;0.000;0.000;2023-05-23T03:43:48;100610.16;;;24.00;44.62
78625;BME280;67944;0.000;0.000;2023-05-23T03:46:14;100621.56;;;23.93;44.00
78625;BME280;67944;0.000;0.000;2023-05-23T03:48:39;100622.56;;;23.86;44.25
78625;BME280;67944;0.000;0.000;2023-05-23T03:51:05;100627.03;;;23.79;44.66
78625;BME280;67944;0.000;0.000;2023-05-23T03:53:30;100621.50;;;23.74;44.62
78625;BME280;67944;0.000;0.000;2023-05-23T03:55:56;100625.56;;;23.70;44.80
78625;BME280;67944;0.000;0.000;2023-05-23T03:58:21;100618.16;;;23.65;44.68
78625;BME280;67944;0.000;0.000;2023-05-23T04:00:47;100621.22;;;23.62;44.53
78625;BME280;67944;0.000;0.000;2023-05-23T04:03:12;100621.00;;;23.57;44.98
78625;BME280;67944;0.000;0.000;2023-05-23T04:05:42;100615.25;;;23.53;44.71
78625;BME280;67944;0.000;0.000;2023-05-23T04:08:07;100623.56;;;23.50;44.92
78625;BME280;67944;0.000;0.000;2023-05-23T04:10:34;100625.59;;;23.48;44.77
78625;BME280;67944;0.000;0.000;2023-05-23T04:12:59;100629.09;;;23.49;44.69
78625;BME280;67944;0.000;0.000;2023-05-23T04:15:25;100639.72;;;23.49;45.12
78625;BME280;67944;0.000;0.000;2023-05-23T04:17:53;100631.94;;;23.47;44.92
78625;BME280;67944;0.000;0.000;2023-05-23T04:20:18;100644.41;;;23.47;44.92
78625;BME280;67944;0.000;0.000;2023-05-23T04:22:44;100645.41;;;23.46;44.89
78625;BME280;67944;0.000;0.000;2023-05-23T04:25:09;100649.09;;;23.45;45.14
78625;BME280;67944;0.000;0.000;2023-05-23T04:27:35;100652.75;;;23.44;44.99
78625;BME280;67944;0.000;0.000;2023-05-23T04:30:05;100649.91;;;23.45;45.32
78625;BME280;67944;0.000;0.000;2023-05-23T04:32:33;100659.53;;;23.46;45.10
78625;BME280;67944;0.000;0.000;2023-05-23T04:34:59;100663.84;;;23.47;45.19
78625;BME280;67944;0.000;0.000;2023-05-23T04:37:26;100655.03;;;23.47;45.10
78625;BME280;67944;0.000;0.000;2023-05-23T04:39:53;100657.50;;;23.48;44.93
78625;BME280;67944;0.000;0.000;2023-05-23T04:42:18;100662.00;;;23.48;45.47
78625;BME280;67944;0.000;0.000;2023-05-23T04:44:49;100669.78;;;23.49;45.25
78625;BME280;67944;0.000;0.000;2023-05-23T04:47:15;100667.13;;;23.49;45.05
78625;BME280;67944;0.000;0.000;2023-05-23T04:49:41;100675.72;;;23.51;45.21
78625;BME280;67944;0.000;0.000;2023-05-23T04:52:06;100679.06;;;23.53;45.48
78625;BME280;67944;0.000;0.000;2023-05-23T04:54:32;100688.28;;;23.57;45.58
78625;BME280;67944;0.000;0.000;2023-05-23T04:56:58;100685.22;;;23.61;45.14
78625;BME280;67944;0.000;0.000;2023-05-23T04:59:23;100684.00;;;23.63;45.12
78625;BME280;67944;0.000;0.000;2023-05-23T05:01:48;100682.16;;;23.64;45.50
78625;BME280;67944;0.000;0.000;2023-05-23T05:04:14;100684.63;;;23.65;45.50
78625;BME280;67944;0.000;0.000;2023-05-23T05:06:40;100684.44;;;23.67;45.63
78625;BME280;67944;0.000;0.000;2023-05-23T05:09:06;100695.91;;;23.67;45.08
78625;BME280;67944;0.000;0.000;2023-05-23T05:11:31;100702.88;;;23.68;45.57
78625;BME280;67944;0.000;0.000;2023-05-23T05:13:57;100705.31;;;23.70;45.51
78625;BME280;67944;0.000;0.000;2023-05-23T05:16:22;100707.16;;;23.69;45.25
78625;BME280;67944;0.000;0.000;2023-05-23T05:18:48;100703.50;;;23.70;45.73
78625;BME280;67944;0.000;0.000;2023-05-23T05:21:13;100708.63;;;23.72;45.29
78625;BME280;67944;0.000;0.000;2023-05-23T05:23:39;100713.56;;;23.75;45.45
78625;BME280;67944;0.000;0.000;2023-05-23T05:26:05;100714.81;;;23.79;45.51
78625;BME280;67944;0.000;0.000;2023-05-23T05:28:30;100710.72;;;23.83;45.58
78625;BME280;67944;0.000;0.000;2023-05-23T05:30:57;100720.78;;;23.87;45.68
78625;BME280;67944;0.000;0.000;2023-05-23T05:33:22;100723.88;;;23.91;45.73
78625;BME280;67944;0.000;0.000;2023-05-23T05:35:49;100719.00;;;23.95;45.65
78625;BME280;67944;0.000;0.000;2023-05-23T05:38:17;100722.09;;;23.98;46.02
78625;BME280;67944;0.000;0.000;2023-05-23T05:40:43;100723.53;;;24.01;44.91
78625;BME280;67944;0.000;0.000;2023-05-23T05:43:09;100728.25;;;24.05;45.29
78625;BME280;67944;0.000;0.000;2023-05-23T05:45:35;100727.22;;;24.06;45.16
78625;BME280;67944;0.000;0.000;2023-05-23T05:48:00;100726.00;;;24.09;45.99
78625;BME280;67944;0.000;0.000;2023-05-23T05:50:26;100732.59;;;24.13;45.10
78625;BME280;67944;0.000;0.000;2023-05-23T05:52:51;100740.00;;;24.17;45.58
78625;BME280;67944;0.000;0.000;2023-05-23T05:55:17;100743.09;;;24.21;45.14
78625;BME280;67944;0.000;0.000;2023-05-23T05:57:42;100753.97;;;24.26;45.60
78625;BME280;67944;0.000;0.000;2023-05-23T06:00:12;100750.09;;;24.29;45.22
78625;BME280;67944;0.000;0.000;2023-05-23T06:02:44;100756.88;;;24.31;45.46
78625;BME280;67944;0.000;0.000;2023-05-23T06:05:13;100751.16;;;24.34;45.25
78625;BME280;67944;0.000;0.000;2023-05-23T06:07:41;100753.44;;;24.37;45.18
78625;BME280;67944;0.000;0.000;2023-05-23T06:10:08;100754.88;;;24.40;45.15
78625;BME280;67944;0.000;0.000;2023-05-23T06:12:34;100756.31;;;24.42;44.98
78625;BME280;67944;0.000;0.000;2023-05-23T06:15:00;100749.78;;;24.45;45.23
78625;BME280;67944;0.000;0.000;2023-05-23T06:17:25;100751.19;;;24.47;45.76
78625;BME280;67944;0.000;0.000;2023-05-23T06:19:51;100760.84;;;24.48;44.70
78625;BME280;67944;0.000;0.000;2023-05-23T06:22:17;100756.94;;;24.51;45.03
78625;BME280;67944;0.000;0.000;2023-05-23T06:24:42;100768.22;;;24.53;45.53
78625;BME280;67944;0.000;0.000;2023-05-23T06:27:08;100767.00;;;24.55;44.86
78625;BME280;67944;0.000;0.000;2023-05-23T06:29:33;100768.66;;;24.56;45.24
78625;BME280;67944;0.000;0.000;2023-05-23T06:32:01;100777.28;;;24.58;45.01
78625;BME280;67944;0.000;0.000;2023-05-23T06:34:26;100773.41;;;24.61;45.11
78625;BME280;67944;0.000;0.000;2023-05-23T06:36:52;100778.31;;;24.64;45.52
78625;BME280;67944;0.000;0.000;2023-05-23T06:39:17;100777.94;;;24.67;45.51
78625;BME280;67944;0.000;0.000;2023-05-23T06:41:43;100778.53;;;24.69;44.68
78625;BME280;67944;0.000;0.000;2023-05-23T06:44:08;100782.63;;;24.72;44.97
78625;BME280;67944;0.000;0.000;2023-05-23T06:46:34;100781.63;;;24.73;44.77
78625;BME280;67944;0.000;0.000;2023-05-23T06:48:59;100791.06;;;24.75;45.45
78625;BME280;67944;0.000;0.000;2023-05-23T06:51:25;100790.66;;;24.78;44.65
78625;BME280;67944;0.000;0.000;2023-05-23T06:53:50;100799.28;;;24.80;45.56
78625;BME280;67944;0.000;0.000;2023-05-23T06:56:16;100799.91;;;24.82;44.34
78625;BME280;67944;0.000;0.000;2023-05-23T06:58:41;100794.56;;;24.82;45.33
78625;BME280;67944;0.000;0.000;2023-05-23T07:01:07;100800.72;;;24.83;44.65
78625;BME280;67944;0.000;0.000;2023-05-23T07:03:32;100806.25;;;24.81;44.39
78625;BME280;67944;0.000;0.000;2023-05-23T07:05:58;100805.00;;;24.77;44.41
78625;BME280;67944;0.000;0.000;2023-05-23T07:08:23;100807.84;;;24.76;44.14
78625;BME280;67944;0.000;0.000;2023-05-23T07:10:48;100805.19;;;24.76;43.99
78625;BME280;67944;0.000;0.000;2023-05-23T07:13:15;100811.97;;;24.78;43.96
78625;BME280;67944;0.000;0.000;2023-05-23T07:15:41;100808.91;;;24.81;43.88
78625;BME280;67944;0.000;0.000;2023-05-23T07:18:06;100813.03;;;24.84;44.42
78625;BME280;67944;0.000;0.000;2023-05-23T07:20:33;100807.50;;;24.85;43.95
78625;BME280;67944;0.000;0.000;2023-05-23T07:22:58;100811.59;;;24.88;44.32
78625;BME280;67944;0.000;0.000;2023-05-23T07:25:25;100815.69;;;24.90;43.75
78625;BME280;67944;0.000;0.000;2023-05-23T07:27:51;100818.16;;;24.92;43.67
78625;BME280;67944;0.000;0.000;2023-05-23T07:30:19;100818.97;;;24.92;43.80
78625;BME280;67944;0.000;0.000;2023-05-23T07:32:46;100823.94;;;24.96;43.95
78625;BME280;67944;0.000;0.000;2023-05-23T07:35:13;100813.91;;;24.98;44.50
78625;BME280;67944;0.000;0.000;2023-05-23T07:37:38;100823.16;;;25.02;43.83
78625;BME280;67944;0.000;0.000;2023-05-23T07:40:04;100825.63;;;25.03;43.59
78625;BME280;67944;0.000;0.000;2023-05-23T07:42:30;100816.41;;;25.06;43.47
78625;BME280;67944;0.000;0.000;2023-05-23T07:44:55;100819.69;;;25.08;44.36
78625;BME280;67944;0.000;0.000;2023-05-23T07:47:21;100820.31;;;25.10;43.90
78625;BME280;67944;0.000;0.000;2023-05-23T07:49:49;100822.56;;;25.13;44.10
78625;BME280;67944;0.000;0.000;2023-05-23T07:52:17;100818.66;;;25.15;44.31
78625;BME280;67944;0.000;0.000;2023-05-23T07:54:42;100816.63;;;25.17;43.76
78625;BME280;67944;0.000;0.000;2023-05-23T07:57:08;100817.44;;;25.18;43.15
78625;BME280;67944;0.000;0.000;2023-05-23T07:59:34;100821.75;;;25.19;44.01
78625;BME280;67944;0.000;0.000;2023-05-23T08:02:00;100819.91;;;25.19;43.71
78625;BME280;67944;0.000;0.000;2023-05-23T08:04:25;100823.59;;;25.18;43.06
78625;BME280;67944;0.000;0.000;2023-05-23T08:06:51;100824.41;;;25.19;43.06
78625;BME280;67944;0.000;0.000;2023-05-23T08:09:17;100823.59;;;25.18;43.35
78625;BME280;67944;0.000;0.000;2023-05-23T08:11:43;100831.59;;;25.18;43.18
78625;BME280;67944;0.000;0.000;2023-05-23T08:14:09;100822.78;;;25.18;42.45
78625;BME280;67944;0.000;0.000;2023-05-23T08:16:34;100826.47;;;25.17;42.12
78625;BME280;67944;0.000;0.000;2023-05-23T08:19:00;100822.78;;;25.18;42.14
78625;BME280;67944;0.000;0.000;2023-05-23T08:21:26;100823.41;;;25.20;42.66
78625;BME280;67944;0.000;0.000;2023-05-23T08:23:51;100819.50;;;25.22;41.98
78625;BME280;67944;0.000;0.000;2023-05-23T08:26:17;100824.44;;;25.25;42.85
78625;BME280;67944;0.000;0.000;2023-05-23T08:28:42;100831.22;;;25.28;42.92
78625;BME280;67944;0.000;0.000;2023-05-23T08:31:08;100823.84;;;25.30;42.74
78625;BME280;67944;0.000;0.000;2023-05-23T08:33:33;100827.72;;;25.34;42.07
78625;BME280;67944;0.000;0.000;2023-05-23T08:35:59;100824.03;;;25.35;42.44
78625;BME280;67944;0.000;0.000;2023-05-23T08:38:25;100826.28;;;25.38;41.70
78625;BME280;67944;0.000;0.000;2023-05-23T08:40:51;100825.91;;;25.41;42.20
78625;BME280;67944;0.000;0.000;2023-05-23T08:43:19;100831.03;;;25.43;42.24
78625;BME280;67944;0.000;0.000;2023-05-23T08:45:44;100829.19;;;25.43;41.88
78625;BME280;67944;0.000;0.000;2023-05-23T08:48:12;100832.66;;;25.44;42.27
78625;BME280;67944;0.000;0.000;2023-05-23T08:50:40;100833.50;;;25.44;42.43
78625;BME280;67944;0.000;0.000;2023-05-23T08:53:08;100840.47;;;25.45;41.42
78625;BME280;67944;0.000;0.000;2023-05-23T08:55:35;100834.13;;;25.46;42.15
78625;BME280;67944;0.000;0.000;2023-05-23T08:58:02;100845.41;;;25.48;41.24
78625;BME280;67944;0.000;0.000;2023-05-23T09:00:28;100840.69;;;25.50;41.61
78625;BME280;67944;0.000;0.000;2023-05-23T09:02:54;100845.00;;;25.51;41.35
78625;BME280;67944;0.000;0.000;2023-05-23T09:05:20;100838.66;;;25.52;41.77
78625;BME280;67944;0.000;0.000;2023-05-23T09:07:46;100840.28;;;25.53;41.10
78625;BME280;67944;0.000;0.000;2023-05-23T09:10:13;100831.47;;;25.53;41.13
78625;BME280;67944;0.000;0.000;2023-05-23T09:12:41;100835.53;;;25.55;40.95
78625;BME280;67944;0.000;0.000;2023-05-23T09:15:08;100831.03;;;25.56;40.93
78625;BME280;67944;0.000;0.000;2023-05-23T09:17:35;100839.84;;;25.56;40.59
78625;BME280;67944;0.000;0.000;2023-05-23T09:20:03;100839.66;;;25.58;40.65
78625;BME280;67944;0.000;0.000;2023-05-23T09:22:31;100844.78;;;25.59;40.47
78625;BME280;67944;0.000;0.000;2023-05-23T09:24:57;100844.59;;;25.61;41.18
78625;BME280;67944;0.000;0.000;2023-05-23T09:27:22;100841.91;;;25.61;40.72
78625;BME280;67944;0.000;0.000;2023-05-23T09:29:48;100851.56;;;25.62;40.92
78625;BME280;67944;0.000;0.000;2023-05-23T09:32:18;100841.75;;;25.63;40.58
78625;BME280;67944;0.000;0.000;2023-05-23T09:34:58;100850.56;;;25.63;40.30
78625;BME280;67944;0.000;0.000;2023-05-23T09:37:29;100837.84;;;25.65;40.62
78625;BME280;67944;0.000;0.000;2023-05-23T09:39:56;100838.66;;;25.66;40.31
78625;BME280;67944;0.000;0.000;2023-05-23T09:42:22;100849.97;;;25.68;40.26
78625;BME280;67944;0.000;0.000;2023-05-23T09:44:49;100834.78;;;25.68;39.77
78625;BME280;67944;0.000;0.000;2023-05-23T09:47:15;100840.13;;;25.68;40.29
78625;BME280;67944;0.000;0.000;2023-05-23T09:49:45;100847.91;;;25.70;39.93
78625;BME280;67944;0.000;0.000;2023-05-23T09:52:11;100852.44;;;25.69;40.43
78625;BME280;67944;0.000;0.000;2023-05-23T09:54:38;100850.78;;;25.68;40.13
78625;BME280;67944;0.000;0.000;2023-05-23T09:57:09;100850.78;;;25.68;39.38
78625;BME280;67944;0.000;0.000;2023-05-23T09:59:39;100850.78;;;25.68;39.35
78625;BME280;67944;0.000;0.000;2023-05-23T10:02:09;100849.13;;;25.67;39.80
78625;BME280;67944;0.000;0.000;2023-05-23T10:04:38;100853.25;;;25.70;39.20
78625;BME280;67944;0.000;0.000;2023-05-23T10:07:12;100854.91;;;25.71;39.61
78625;BME280;67944;0.000;0.000;2023-05-23T10:09:41;100857.97;;;25.74;39.95
78625;BME280;67944;0.000;0.000;2023-05-23T10:15:02;100850.34;;;25.78;39.68
78625;BME280;67944;0.000;0.000;2023-05-23T10:17:41;100854.47;;;25.80;40.04
78625;BME280;67944;0.000;0.000;2023-05-23T10:20:14;100847.09;;;25.82;39.56
78625;BME280;67944;0.000;0.000;2023-05-23T10:22:41;100848.72;;;25.83;40.02
78625;BME280;67944;0.000;0.000;2023-05-23T10:25:07;100849.53;;;25.84;39.66
78625;BME280;67944;0.000;0.000;2023-05-23T10:27:38;100853.03;;;25.84;39.40
78625;BME280;67944;0.000;0.000;2023-05-23T10:30:05;100858.16;;;25.86;39.68
78625;BME280;67944;0.000;0.000;2023-05-23T10:32:33;100863.50;;;25.86;39.26
78625;BME280;67944;0.000;0.000;2023-05-23T10:35:08;100865.16;;;25.87;39.92
78625;BME280;67944;0.000;0.000;2023-05-23T10:40:37;100856.13;;;25.88;39.63
78625;BME280;67944;0.000;0.000;2023-05-23T10:43:26;100863.31;;;25.87;39.94
78625;BME280;67944;0.000;0.000;2023-05-23T10:45:53;100851.81;;;25.87;39.52
78625;BME280;67944;0.000;0.000;2023-05-23T10:48:32;100861.47;;;25.88;39.49
78625;BME280;67944;0.000;0.000;2023-05-23T10:51:06;100863.09;;;25.89;39.05
78625;BME280;67944;0.000;0.000;2023-05-23T10:53:35;100867.41;;;25.90;39.84
78625;BME280;67944;0.000;0.000;2023-05-23T10:56:10;100861.06;;;25.91;39.57
78625;BME280;67944;0.000;0.000;2023-05-23T10:58:37;100866.19;;;25.92;39.47
78625;BME280;67944;0.000;0.000;2023-05-23T11:01:08;100867.81;;;25.93;39.02
78625;BME280;67944;0.000;0.000;2023-05-23T11:06:02;100863.94;;;25.96;39.47
78625;BME280;67944;0.000;0.000;2023-05-23T11:08:35;100863.72;;;25.98;39.24
78625;BME280;67944;0.000;0.000;2023-05-23T11:11:03;100860.81;;;25.99;38.64
78625;BME280;67944;0.000;0.000;2023-05-23T11:13:54;100858.78;;;26.01;39.23
78625;BME280;67944;0.000;0.000;2023-05-23T11:16:29;100861.25;;;26.03;39.07
78625;BME280;67944;0.000;0.000;2023-05-23T11:21:48;100857.13;;;26.07;39.12
78625;BME280;67944;0.000;0.000;2023-05-23T11:24:14;100857.97;;;26.07;38.59
78625;BME280;67944;0.000;0.000;2023-05-23T11:26:51;100862.28;;;26.08;38.47
78625;BME280;67944;0.000;0.000;2023-05-23T11:29:18;100860.41;;;26.09;38.85
78625;BME280;67944;0.000;0.000;2023-05-23T11:31:43;100861.25;;;26.09;38.61
78625;BME280;67944;0.000;0.000;2023-05-23T11:34:10;100863.72;;;26.11;39.08
78625;BME280;67944;0.000;0.000;2023-05-23T11:36:36;100851.19;;;26.11;38.44
78625;BME280;67944;0.000;0.000;2023-05-23T11:39:03;100855.28;;;26.14;38.67
78625;BME280;67944;0.000;0.000;2023-05-23T11:41:31;100863.09;;;26.15;38.22
78625;BME280;67944;0.000;0.000;2023-05-23T11:43:57;100862.69;;;26.18;38.68
78625;BME280;67944;0.000;0.000;2023-05-23T11:46:23;100868.03;;;26.18;38.17
78625;BME280;67944;0.000;0.000;2023-05-23T11:48:49;100860.59;;;26.20;38.24
78625;BME280;67944;0.000;0.000;2023-05-23T11:51:16;100859.38;;;26.23;38.86
78625;BME280;67944;0.000;0.000;2023-05-23T11:53:41;100863.47;;;26.25;38.54
78625;BME280;67944;0.000;0.000;2023-05-23T11:56:07;100878.47;;;26.26;38.59
78625;BME280;67944;0.000;0.000;2023-05-23T11:58:37;100862.25;;;26.28;38.44
78625;BME280;67944;0.000;0.000;2023-05-23T12:01:05;100876.25;;;26.30;38.12
78625;BME280;67944;0.000;0.000;2023-05-23T12:03:32;100886.91;;;26.30;38.09
78625;BME280;67944;0.000;0.000;2023-05-23T12:05:58;100881.38;;;26.32;38.25
78625;BME280;67944;0.000;0.000;2023-05-23T12:08:24;100865.97;;;26.34;37.82
78625;BME280;67944;0.000;0.000;2023-05-23T12:10:56;100863.09;;;26.35;38.03
78625;BME280;67944;0.000;0.000;2023-05-23T12:13:27;100854.88;;;26.37;38.22
78625;BME280;67944;0.000;0.000;2023-05-23T12:16:00;100861.84;;;26.38;37.84
78625;BME280;67944;0.000;0.000;2023-05-23T12:18:30;100860.63;;;26.40;38.09
78625;BME280;67944;0.000;0.000;2023-05-23T12:21:00;100877.03;;;26.44;38.38
78625;BME280;67944;0.000;0.000;2023-05-23T12:23:28;100877.84;;;26.44;37.87
78625;BME280;67944;0.000;0.000;2023-05-23T12:25:55;100876.59;;;26.47;37.70
78625;BME280;67944;0.000;0.000;2023-05-23T12:28:39;100874.56;;;26.49;38.22
78625;BME280;67944;0.000;0.000;2023-05-23T12:31:17;100872.50;;;26.51;38.09
78625;BME280;67944;0.000;0.000;2023-05-23T12:33:44;100872.50;;;26.51;38.30
78625;BME280;67944;0.000;0.000;2023-05-23T12:36:10;100876.59;;;26.53;38.27
78625;BME280;67944;0.000;0.000;2023-05-23T12:38:36;100877.41;;;26.54;37.82
78625;BME280;67944;0.000;0.000;2023-05-23T12:41:16;100863.84;;;26.55;37.96
78625;BME280;67944;0.000;0.000;2023-05-23T12:43:51;100874.53;;;26.55;38.10
78625;BME280;67944;0.000;0.000;2023-05-23T12:46:18;100878.84;;;26.56;38.50
78625;BME280;67944;0.000;0.000;2023-05-23T12:48:43;100873.50;;;26.56;38.15
78625;BME280;67944;0.000;0.000;2023-05-23T12:51:09;100868.78;;;26.58;38.43
78625;BME280;67944;0.000;0.000;2023-05-23T12:53:35;100881.94;;;26.60;38.24
78625;BME280;67944;0.000;0.000;2023-05-23T12:56:01;100875.56;;;26.61;38.31
78625;BME280;67944;0.000;0.000;2023-05-23T12:58:26;100864.88;;;26.61;38.15
78625;BME280;67944;0.000;0.000;2023-05-23T13:00:52;100861.19;;;26.62;37.92
78625;BME280;67944;0.000;0.000;2023-05-23T13:03:18;100857.47;;;26.63;37.69
78625;BME280;67944;0.000;0.000;2023-05-23T13:05:43;100865.50;;;26.63;37.76
78625;BME280;67944;0.000;0.000;2023-05-23T13:08:09;100859.75;;;26.59;38.41
78625;BME280;67944;0.000;0.000;2023-05-23T13:10:36;100854.00;;;26.56;38.27
78625;BME280;67944;0.000;0.000;2023-05-23T13:13:02;100868.78;;;26.52;38.67
78625;BME280;67944;0.000;0.000;2023-05-23T13:15:28;100855.66;;;26.50;38.22